• Join FlightAware (Why Join?)
  • Login
  • US Flag 
09:29AM EST


 

Airport Tracker/Info


-or-


 

Live Flight TrackerFlight Track Log ✈ DAL1214 ✈ 02-May-2013 ✈ KMCI - KDTW

Flight Track Log - Related Links

Times and Time Zones

All times are in EDT time to prevent confusion due to time zone crossing. See the DAL1214 flight status page for this flight to view local times or setup timezone preferences in your user account.

Time Position Orientation Groundspeed Altitude Reporting Facility
EDT Latitude Longitude Course Direction KTS MPH feet Rate Location/Type
08:10PM 39.3333 -94.7167 38° Northeast 154 177 2,900  Level Kansas City TRACON
08:11PM 39.3639 -94.6756 46° Northeast 195 224 4,900 2,760 Climbing Kansas City Center
08:12PM 39.4172 -94.6083 44° Northeast 236 272 8,400 2,460 Climbing Kansas City Center
08:13PM 39.6046 -94.3199 41° Northeast  Level FlightAware Approximate
08:13PM 39.4669 -94.5389 47° Northeast 280 322 10,000  Level Kansas City Center
08:14PM 39.6939 -94.2119 47° Northeast  Level FlightAware Approximate
08:14PM 39.5372 -94.4436 46° Northeast 334 384 11,700  Level Kansas City Center
08:15PM 39.7815 -94.1019 38° Northeast  Level FlightAware Approximate
08:15PM 39.6064 -94.3508 46° Northeast 371 427 13,700  Level Kansas City Center
08:16PM 39.6878 -94.2392 47° Northeast 384 442 16,300 2,040 Climbing Kansas City Center
08:17PM 39.7453 -94.1267 56° Northeast 391 450 18,000 1,500 Climbing Kansas City Center
08:18PM 39.8125 -93.9972 56° Northeast 410 472 19,500 1,740 Climbing Kansas City Center
08:19PM 39.8808 -93.8597 57° Northeast 419 482 21,600 1,680 Climbing Kansas City Center
08:20PM 39.9381 -93.7358 59° Northeast 414 476 23,000 1,200 Climbing Kansas City Center
08:21PM 39.9817 -93.5950 68° East 420 483 24,200 1,200 Climbing Kansas City Center
08:22PM 40.0267 -93.4514 68° East 430 495 25,500 900 Climbing Kansas City Center
08:23PM 40.0753 -93.3033 67° East 446 513 26,100 600 Climbing Kansas City Center
08:24PM 40.1269 -93.1464 67° East 468 539 26,800 1,140 Climbing Kansas City Center
08:25PM 40.1808 -92.9739 68° East 479 551 28,500 1,620 Climbing Kansas City Center
08:26PM 40.2394 -92.7939 67° East 482 555 30,200 1,200 Climbing Kansas City Center
08:27PM 40.2889 -92.6403 67° East 479 551 31,000 780 Climbing Kansas City Center
08:28PM 40.3383 -92.4653 70° East 483 556 31,900 960 Climbing Kansas City Center
08:30PM 40.3986 -92.2900 66° East 488 562 33,000 480 Climbing Kansas City Center
08:31PM 40.4447 -92.1283 69° East 479 551 33,000  Level Kansas City Center
08:32PM 40.4733 -91.9608 77° East 472 543 33,000 360 Level Kansas City Center
08:33PM 40.5033 -91.7939 77° East 472 543 33,800 720 Climbing Kansas City Center
08:34PM 40.5456 -91.6317 71° East 472 543 34,600 600 Climbing Kansas City Center
08:35PM 40.5994 -91.4733 66° East 476 548 35,000 180 Climbing Chicago Center
08:36PM 40.6508 -91.3111 67° East 482 555 35,000  Level Chicago Center
08:37PM 40.7100 -91.1228 67° East 482 555 35,000  Level Chicago Center
08:38PM 40.7608 -90.9594 68° East 480 552 35,000  Level Chicago Center
08:39PM 40.8114 -90.7978 68° East 478 550 35,000  Level Chicago Center
08:40PM 40.8619 -90.6328 68° East 480 552 35,000  Level Chicago Center
08:41PM 40.9119 -90.4700 68° East 478 550 35,000  Level Chicago Center
08:42PM 40.9639 -90.3039 67° East 486 559 35,000  Level Chicago Center
08:43PM 41.0153 -90.1383 68° East 482 555 35,000  Level Chicago Center
08:44PM 41.0758 -89.9383 68° East 483 556 35,000  Level Chicago Center
08:45PM 41.1258 -89.7717 68° East 483 556 35,000  Level Chicago Center
08:46PM 41.1742 -89.6031 69° East 486 559 35,000  Level Chicago Center
08:47PM 41.2236 -89.4369 68° East 485 558 35,000  Level Chicago Center
08:48PM 41.2722 -89.2722 69° East 478 550 35,000  Level Chicago Center
08:49PM 41.3167 -89.1117 70° East 474 545 35,000  Level Chicago Center
08:50PM 41.3744 -88.9122 69° East 480 552 35,000  Level Chicago Center
08:51PM 41.4231 -88.7461 69° East 484 557 35,000  Level Chicago Center
08:52PM 41.4689 -88.5786 70° East 482 555 35,000  Level Chicago Center
08:53PM 41.5167 -88.4122 69° East 479 551 35,000  Level Chicago Center
08:54PM 41.5550 -88.2417 73° East 474 545 35,000  Level Chicago Center
08:55PM 41.5772 -88.0636 80° East 475 547 35,000  Level Chicago Center
08:56PM 41.5972 -87.8867 81° East 475 547 35,000 -960 Level Chicago Center
08:57PM 41.6225 -87.6772 81° East 476 548 33,100 -1,020 Descending Chicago Center
08:58PM 41.6417 -87.5036 82° East 474 545 33,000 -60 Descending Chicago Center
08:59PM 41.6617 -87.3283 81° East 478 550 33,000  Level Chicago Center
09:00PM 41.6875 -87.1589 78° East 470 541 33,000 -60 Level Chicago Center
09:01PM 41.7400 -86.9967 67° East 475 547 32,900 -780 Descending Chicago Center
09:02PM 41.7911 -86.8319 67° East 481 554 31,500 -1,260 Descending Chicago Center
09:04PM 41.8489 -86.6442 68° East 485 558 30,300 -1,020 Descending Chicago Center
09:05PM 41.8936 -86.4731 71° East 487 560 29,500 -840 Descending Chicago Center
09:06PM 41.9128 -86.2953 82° East 483 556 28,600 -960 Descending Chicago Center
09:07PM 41.9317 -86.1178 82° East 482 555 27,600 -960 Descending Chicago Center
09:08PM 41.9503 -85.9386 82° East 484 557 26,700 -840 Descending Chicago Center
09:09PM 41.9717 -85.7228 82° East 483 556 25,900 -780 Descending Chicago Center
09:10PM 41.9886 -85.5472 83° East 474 545 25,100 -1,320 Descending Chicago Center
09:11PM 42.0044 -85.3942 82° East 467 537 23,200 -2,160 Descending Chicago Center
09:11PM 42.0147 -85.3125 80° East 455 524 22,100 -2,820 Descending Cleveland Center
09:12PM 42.0292 -85.1569 83° East 434 499 19,400 -1,560 Descending Cleveland Center
09:13PM 42.0417 -85.0014 84° East 422 486 19,000 -420 Descending Cleveland Center
09:14PM 42.0497 -84.8425 86° East 422 486 18,600 -840 Descending Cleveland Center
09:15PM 42.0133 -84.6975 109° East 406 467 17,400 -1,140 Descending Cleveland Center
09:16PM 41.9825 -84.5669 108° East 406 467 16,400 -1,140 Descending Cleveland Center
09:17PM 41.9394 -84.4244 112° Southeast 406 467 15,200 -1,320 Descending Cleveland Center
09:18PM 41.9167 -84.3533 113° Southeast 395 455 14,500 -1,380 Descending Cleveland Center
09:18PM 41.9000 -84.2911 110° East 388 447 14,000 -1,080 Descending Cleveland Center
09:19PM 41.8606 -84.1578 112° Southeast 383 441 12,900 -1,020 Descending Cleveland Center
09:20PM 41.8394 -84.0256 102° East 376 433 12,000 -720 Descending Cleveland Center
09:21PM 41.8600 -83.8928 78° East 356 410 11,500 -900 Descending Cleveland Center
09:22PM 41.8719 -83.7678 83° East 344 396 10,100 -900 Descending Cleveland Center
09:23PM 41.8856 -83.6542 81° East 326 375 9,800 -1,200 Descending Cleveland Center
09:24PM 41.9008 -83.5433 79° East 301 346 7,700 -1,920 Descending Cleveland Center
09:25PM 41.9725 -83.5186 14° North 218 251 6,000 -1,560 Descending Cleveland Center
09:26PM 42.0394 -83.5050 North 225 259 4,700 -1,380 Descending Cleveland Center